Marco Polo — C6JZ7 — position and weather

sailwx.info

Track history (hours):
 
Tides and Currents Weather Stations Pressure Air Temp Water Temp Dewpoint Dewpoint Depression Visibility Wind Speed Wind Dir Waves Ship Positions

Marco Polo

Operator: Orient Lines

Last reported at 2015-Jul-04 13:34 UTC. Time now 2015-Jul-04 15:18 UTC.
Position N 59°01' W 002°51'.

Type: Ship. MMSI: 308691456.

Date/timePositionNaut miles runAvg speedWind from/ knotsBaromVisibWave heightAir tempDewpointWater temp
2015-Jul-04 13:34N 59°01' W 002°51'4 3.5
2015-Jul-04 12:31N 59°00' W 002°58'0 0.0
2015-Jul-04 11:31N 59°00' W 002°58'0 0.0
2015-Jul-04 10:33N 59°00' W 002°58'0 0.0
2015-Jul-04 09:33N 59°00' W 002°58'0 0.0
2015-Jul-04 08:32N 59°00' W 002°58'0 0.0
2015-Jul-04 07:32N 59°00' W 002°58'0 0.0
2015-Jul-04 06:31N 59°00' W 002°58'0 0.0
2015-Jul-04 05:31N 59°00' W 002°58'3 2.8
2015-Jul-04 04:34N 59°01' W 002°52'  
2015-Jul-01 18:26N 64°11' W 021°57'  
2015-Jun-26 09:11N 62°06' W 006°56'3 3.9
2015-Jun-26 08:29N 62°07' W 006°51'1312.6
2015-Jun-26 07:25N 61°55' W 006°37'35410.1
2015-Jun-24 20:33N 56°27' W 002°17'1514.9
2015-Jun-24 19:33N 56°13' W 002°26'1414.1
2015-Jun-24 18:33N 56°06' W 002°48'1313.4
2015-Jun-24 17:33N 56°00' W 003°10'1 1.4
2015-Jun-24 16:34N 55°59' W 003°11'0 0.4
2015-Jun-24 15:33N 55°59' W 003°11'0 0.0
2015-Jun-24 14:30N 55°59' W 003°11'  
Track history (hours):
 
Tides and Currents Weather Stations Pressure Air Temp Water Temp Dewpoint Dewpoint Depression Visibility Wind Speed Wind Dir Waves Ship Positions

Marco Polo

Operator: Orient Lines

Last reported at 2015-Jul-04 13:34 UTC. Time now 2015-Jul-04 15:18 UTC.
Position N 59°01' W 002°51'.

Type: Ship. MMSI: 308691456.

Date/timePositionNaut miles runAvg speedWind from/ knotsBaromVisibWave heightAir tempDewpointWater temp
2015-Jul-04 13:34N 59°01' W 002°51'4 3.5
2015-Jul-04 12:31N 59°00' W 002°58'0 0.0
2015-Jul-04 11:31N 59°00' W 002°58'0 0.0
2015-Jul-04 10:33N 59°00' W 002°58'0 0.0
2015-Jul-04 09:33N 59°00' W 002°58'0 0.0
2015-Jul-04 08:32N 59°00' W 002°58'0 0.0
2015-Jul-04 07:32N 59°00' W 002°58'0 0.0
2015-Jul-04 06:31N 59°00' W 002°58'0 0.0
2015-Jul-04 05:31N 59°00' W 002°58'3 2.8
2015-Jul-04 04:34N 59°01' W 002°52'  
2015-Jul-01 18:26N 64°11' W 021°57'  
2015-Jun-26 09:11N 62°06' W 006°56'3 3.9
2015-Jun-26 08:29N 62°07' W 006°51'1312.6
2015-Jun-26 07:25N 61°55' W 006°37'35410.1
2015-Jun-24 20:33N 56°27' W 002°17'1514.9
2015-Jun-24 19:33N 56°13' W 002°26'1414.1
2015-Jun-24 18:33N 56°06' W 002°48'1313.4
2015-Jun-24 17:33N 56°00' W 003°10'1 1.4
2015-Jun-24 16:34N 55°59' W 003°11'0 0.4
2015-Jun-24 15:33N 55°59' W 003°11'0 0.0
2015-Jun-24 14:30N 55°59' W 003°11'  

Dump ship's entire track history